createdAt,value
2022-12-16T00:00:22.925Z,100678.78
2022-12-16T00:02:55.316Z,100687.13
2022-12-16T00:05:24.419Z,100685.28
2022-12-16T00:07:53.497Z,100685.28
2022-12-16T00:10:24.892Z,100683.59
2022-12-16T00:12:53.956Z,100683.23
2022-12-16T00:15:26.809Z,100683.23
2022-12-16T00:17:55.761Z,100685.78
2022-12-16T00:20:24.816Z,100685.78
2022-12-16T00:22:57.053Z,100680.50
2022-12-16T00:25:26.087Z,100680.50
2022-12-16T00:28:00.326Z,100677.41
2022-12-16T00:30:25.865Z,100675.39
2022-12-16T00:32:54.920Z,100669.33
2022-12-16T00:35:23.987Z,100680.92
2022-12-16T00:37:53.382Z,100687.92
2022-12-16T00:40:22.533Z,100696.12
2022-12-16T00:42:52.055Z,100692.90
2022-12-16T00:45:21.744Z,100689.37
2022-12-16T00:47:52.014Z,100702.27
2022-12-16T00:50:22.495Z,100708.16
2022-12-16T00:52:51.610Z,100711.25
2022-12-16T00:55:21.536Z,100720.65
2022-12-16T00:57:50.582Z,100720.65
2022-12-16T01:00:22.710Z,100732.02
2022-12-16T01:02:53.719Z,100740.96
2022-12-16T01:05:25.934Z,100741.71
2022-12-16T01:07:56.208Z,100741.71
2022-12-16T01:10:27.438Z,100733.55
2022-12-16T01:12:56.391Z,100736.64
2022-12-16T01:15:25.493Z,100720.33
2022-12-16T01:17:54.545Z,100712.21
2022-12-16T01:20:24.302Z,100698.86
2022-12-16T01:22:53.309Z,100689.10
2022-12-16T01:25:24.025Z,100703.23
2022-12-16T01:27:53.028Z,100706.90
2022-12-16T01:30:22.052Z,100701.83
2022-12-16T01:32:51.163Z,100701.83
2022-12-16T01:35:51.370Z,100711.05
2022-12-16T01:37:51.781Z,100683.47
2022-12-16T01:40:24.041Z,100690.46
2022-12-16T01:42:53.012Z,100688.45
2022-12-16T01:45:31.071Z,100691.70
2022-12-16T01:48:03.481Z,100699.07
2022-12-16T01:50:33.563Z,100698.87
2022-12-16T01:53:06.767Z,100694.87
2022-12-16T01:55:38.631Z,100681.64
2022-12-16T01:58:16.492Z,100689.02
2022-12-16T02:00:45.875Z,100698.50
2022-12-16T02:03:16.046Z,100693.02
2022-12-16T02:05:47.409Z,100708.91
2022-12-16T02:08:21.031Z,100715.71
2022-12-16T02:11:08.011Z,100717.27
2022-12-16T02:14:03.687Z,100713.32
2022-12-16T02:16:45.991Z,100716.17
2022-12-16T02:19:33.112Z,100715.18
2022-12-16T02:22:26.296Z,100712.83
2022-12-16T02:25:23.943Z,100698.58
2022-12-16T02:28:01.689Z,100692.39
2022-12-16T02:30:48.759Z,100684.72
2022-12-16T02:33:38.734Z,100699.95
2022-12-16T02:36:19.271Z,100715.58
2022-12-16T02:39:03.855Z,100710.13
2022-12-16T02:42:00.068Z,100720.36
2022-12-16T02:44:47.023Z,100729.20
2022-12-16T02:47:16.060Z,100726.81
2022-12-16T02:49:50.934Z,100726.81
2022-12-16T02:52:23.076Z,100731.00
2022-12-16T02:54:55.086Z,100735.23
2022-12-16T02:57:46.944Z,100745.54
2022-12-16T03:00:18.736Z,100734.88
2022-12-16T03:02:56.482Z,100733.55
2022-12-16T03:05:43.583Z,100721.15
2022-12-16T03:08:18.258Z,100712.21
2022-12-16T03:10:50.161Z,100712.21
2022-12-16T03:13:22.254Z,100716.08
2022-12-16T03:15:54.255Z,100735.86
2022-12-16T03:18:23.845Z,100743.40
2022-12-16T03:20:58.404Z,100742.41
2022-12-16T03:23:36.112Z,100742.41
2022-12-16T03:26:08.006Z,100724.03
2022-12-16T03:28:49.997Z,100718.43
2022-12-16T03:31:43.413Z,100718.43
2022-12-16T03:34:33.188Z,100719.59
2022-12-16T03:37:05.135Z,100728.39
2022-12-16T03:39:37.056Z,100745.78
2022-12-16T03:42:07.149Z,100790.20
2022-12-16T03:44:37.662Z,100806.52
2022-12-16T03:47:07.570Z,100815.05
2022-12-16T03:49:36.741Z,100802.52
2022-12-16T03:52:05.850Z,100802.52
2022-12-16T03:54:35.108Z,100806.27
2022-12-16T03:57:04.575Z,100818.36
2022-12-16T03:59:33.659Z,100812.98
2022-12-16T04:02:02.854Z,100812.98
2022-12-16T04:04:32.329Z,100810.64
2022-12-16T04:07:19.335Z,100799.47
2022-12-16T04:09:48.972Z,100799.42
2022-12-16T04:12:36.086Z,100808.82
2022-12-16T04:15:23.288Z,100813.27
2022-12-16T04:18:10.329Z,100813.47
2022-12-16T04:20:59.731Z,100813.47
2022-12-16T04:23:49.106Z,100811.01
2022-12-16T04:26:18.688Z,100804.48
2022-12-16T04:28:47.692Z,100802.98
2022-12-16T04:31:16.950Z,100813.27
2022-12-16T04:34:03.866Z,100812.48
2022-12-16T04:36:51.027Z,100812.48
2022-12-16T04:39:38.185Z,100825.48
2022-12-16T04:42:25.809Z,100833.77
2022-12-16T04:45:12.923Z,100839.04
2022-12-16T04:47:59.743Z,100847.88
2022-12-16T04:50:46.890Z,100848.19
2022-12-16T04:53:34.309Z,100853.59
2022-12-16T04:56:21.274Z,100853.59
2022-12-16T04:59:08.244Z,100869.84
2022-12-16T05:01:55.398Z,100868.14
2022-12-16T05:04:42.378Z,100881.63
2022-12-16T05:07:32.033Z,100902.47
2022-12-16T05:10:18.191Z,100913.67
2022-12-16T05:13:05.412Z,100914.87
2022-12-16T05:15:52.403Z,100924.39
2022-12-16T05:18:39.277Z,100930.70
2022-12-16T05:21:25.869Z,100933.83
2022-12-16T05:24:11.653Z,100939.27
2022-12-16T05:26:59.252Z,100938.33
2022-12-16T05:29:46.412Z,100946.08
2022-12-16T05:32:33.327Z,100948.39
2022-12-16T05:35:20.112Z,100948.39
2022-12-16T05:38:07.059Z,100950.64
2022-12-16T05:40:54.069Z,100944.27
2022-12-16T05:43:42.199Z,100945.74
2022-12-16T05:46:29.408Z,100948.28
2022-12-16T05:49:16.708Z,100942.55
2022-12-16T05:52:03.471Z,100951.46
2022-12-16T05:54:50.659Z,100954.81
2022-12-16T05:57:37.858Z,100967.02
2022-12-16T06:00:26.013Z,100976.59
2022-12-16T06:03:13.013Z,100973.44
2022-12-16T06:06:00.108Z,100976.26
2022-12-16T06:08:47.071Z,100979.11
2022-12-16T06:11:34.120Z,100983.66
2022-12-16T06:14:21.206Z,100983.66
2022-12-16T06:17:08.585Z,100968.55
2022-12-16T06:19:55.408Z,100982.78
2022-12-16T06:22:42.464Z,100990.92
2022-12-16T06:25:29.766Z,101006.55
2022-12-16T10:00:28.318Z,100970.84
2022-12-16T10:03:17.047Z,100956.03
2022-12-16T10:06:12.835Z,100961.31
2022-12-16T10:09:02.617Z,100958.45
2022-12-16T10:12:01.096Z,100962.00
2022-12-16T10:14:53.752Z,100966.13
2022-12-16T10:17:43.472Z,100966.13
2022-12-16T10:20:50.815Z,100959.53
2022-12-16T10:23:52.953Z,100961.35
2022-12-16T10:26:54.596Z,100961.35
2022-12-16T10:29:44.267Z,100954.95
2022-12-16T10:32:38.577Z,100959.45
2022-12-16T10:35:40.283Z,100952.61
2022-12-16T10:38:42.249Z,100954.88
2022-12-16T10:41:31.122Z,100959.83
2022-12-16T10:44:19.668Z,100957.34
2022-12-16T10:47:06.907Z,100946.13
2022-12-16T10:49:55.009Z,100948.02
2022-12-16T10:52:42.110Z,100945.84
2022-12-16T10:55:27.499Z,100945.84
2022-12-16T10:58:35.545Z,100952.39
2022-12-16T11:01:20.646Z,100959.57
2022-12-16T11:04:09.456Z,100959.57
2022-12-16T11:06:58.891Z,100954.39
2022-12-16T11:09:51.455Z,100967.61
2022-12-16T11:12:46.750Z,100964.70
2022-12-16T11:15:47.994Z,100961.09
2022-12-16T11:18:40.543Z,100953.80
2022-12-16T11:21:30.043Z,100953.93
2022-12-16T11:24:25.669Z,100962.39
2022-12-16T11:27:13.777Z,100960.14
2022-12-16T11:30:24.456Z,100953.17
2022-12-16T11:33:16.967Z,100951.45
2022-12-16T11:36:06.564Z,100944.72
2022-12-16T11:39:05.294Z,100942.17
2022-12-16T11:42:00.782Z,100947.78
2022-12-16T11:44:56.519Z,100949.83
2022-12-16T11:48:01.244Z,100949.83
2022-12-16T11:50:50.208Z,100951.29
2022-12-16T11:53:49.642Z,100941.05
2022-12-16T11:56:42.556Z,100945.02
2022-12-16T11:59:35.501Z,100933.81
2022-12-16T12:02:24.944Z,100929.29
2022-12-16T12:05:11.712Z,100927.01
2022-12-16T12:08:15.316Z,100930.51
2022-12-16T12:11:10.794Z,100939.89
2022-12-16T12:14:00.732Z,100948.98
2022-12-16T12:16:52.946Z,100960.54
2022-12-16T12:20:08.906Z,100951.45
2022-12-16T12:22:59.312Z,100922.88
2022-12-16T12:25:55.205Z,100922.88
2022-12-16T12:28:47.579Z,100932.33
2022-12-16T12:31:40.254Z,100925.55
2022-12-16T12:34:42.243Z,100932.33
2022-12-16T12:37:34.868Z,100940.52
2022-12-16T12:40:30.114Z,100941.31
2022-12-16T12:43:16.998Z,100941.14
2022-12-16T12:46:25.274Z,100935.37
2022-12-16T12:49:20.733Z,100930.08
2022-12-16T12:52:16.094Z,100933.39
2022-12-16T12:55:14.666Z,100933.39
2022-12-16T12:58:04.352Z,100942.80
2022-12-16T13:00:54.039Z,100939.33
2022-12-16T13:03:47.228Z,100940.58
2022-12-16T13:06:36.081Z,100940.55
2022-12-16T13:09:24.773Z,100953.33
2022-12-16T13:12:29.338Z,100953.33
2022-12-16T13:15:27.913Z,100941.70
2022-12-16T13:18:26.869Z,100934.69
2022-12-16T13:21:18.225Z,100935.55
2022-12-16T13:24:05.672Z,100924.99
2022-12-16T13:26:54.773Z,100924.75
2022-12-16T13:29:51.917Z,100927.35
2022-12-16T13:32:44.575Z,100927.35
2022-12-16T13:35:34.158Z,100942.49
2022-12-16T13:38:26.594Z,100936.27
2022-12-16T13:41:16.227Z,100947.53
2022-12-16T13:44:09.064Z,100951.61
2022-12-16T13:47:06.824Z,100956.03
2022-12-16T13:50:00.883Z,100956.03
2022-12-16T13:53:05.341Z,100950.38
2022-12-16T13:55:55.173Z,100931.39
2022-12-16T13:59:00.082Z,100934.23
2022-12-16T14:02:12.910Z,100950.98
2022-12-16T14:05:05.844Z,100950.98
2022-12-16T14:07:55.667Z,100976.61
2022-12-16T14:10:51.178Z,100975.33
2022-12-16T14:13:49.752Z,100975.27
2022-12-16T14:16:45.788Z,100980.69
2022-12-16T14:19:47.696Z,100980.69
2022-12-16T14:22:48.426Z,100960.34
2022-12-16T14:25:38.311Z,100961.16
2022-12-16T14:28:39.420Z,100941.64
2022-12-16T14:31:35.173Z,100941.64
2022-12-16T14:34:23.226Z,100905.41
2022-12-16T14:37:10.187Z,100897.59
2022-12-16T14:39:58.750Z,100897.25
2022-12-16T14:42:48.650Z,100919.12
2022-12-16T14:45:55.650Z,100919.12
2022-12-16T14:48:57.629Z,100943.30
2022-12-16T14:51:55.444Z,100924.93
2022-12-16T14:54:54.010Z,100922.48
2022-12-16T14:57:43.379Z,100930.08
2022-12-16T15:00:35.861Z,100934.05
2022-12-16T15:03:25.594Z,100946.63
2022-12-16T15:06:13.476Z,100942.04
2022-12-16T15:09:08.747Z,100942.04
2022-12-16T15:11:58.061Z,100921.53
2022-12-16T15:14:48.073Z,100919.05
2022-12-16T15:17:43.731Z,100920.20
2022-12-16T15:20:36.266Z,100915.81
2022-12-16T15:23:23.513Z,100917.34
2022-12-16T15:26:12.813Z,100922.09
2022-12-16T15:29:01.840Z,100917.20
2022-12-16T15:31:55.223Z,100926.81
2022-12-16T15:34:43.906Z,100926.81
2022-12-16T15:37:44.779Z,100939.00
2022-12-16T15:40:40.345Z,100939.00
2022-12-16T15:43:48.283Z,100922.36
2022-12-16T15:46:44.681Z,100915.52
2022-12-16T15:50:00.573Z,100915.52
2022-12-16T15:53:01.640Z,100887.55
2022-12-16T15:56:04.650Z,100879.52
2022-12-16T15:58:50.740Z,100902.14
2022-12-16T16:01:42.874Z,100896.99
2022-12-16T16:04:41.581Z,100896.99
2022-12-16T16:07:36.785Z,100906.14
2022-12-16T16:10:41.080Z,100909.44
2022-12-16T16:13:28.391Z,100920.57
2022-12-16T16:16:15.922Z,100925.98
2022-12-16T16:19:03.331Z,100923.24
2022-12-16T16:21:50.453Z,100898.24
2022-12-16T16:24:37.003Z,100898.24
2022-12-16T16:27:25.865Z,100879.28
2022-12-16T16:30:12.599Z,100879.28
2022-12-16T16:32:59.356Z,100901.63
2022-12-16T16:35:46.664Z,100920.80
2022-12-16T16:38:34.774Z,100904.58
2022-12-16T16:41:21.649Z,100917.95
2022-12-16T16:44:08.828Z,100929.78
2022-12-16T16:47:00.193Z,100929.78
2022-12-16T16:50:01.317Z,100921.92
2022-12-16T16:52:48.380Z,100917.23
2022-12-16T16:55:43.149Z,100917.23
2022-12-16T16:58:47.427Z,100908.84
2022-12-16T17:01:36.040Z,100908.84
2022-12-16T17:04:23.942Z,100869.64
2022-12-16T17:07:10.897Z,100874.95
2022-12-16T17:09:57.977Z,100874.95
2022-12-16T17:12:47.799Z,100905.91
2022-12-16T17:15:37.505Z,100886.36
2022-12-16T17:18:24.793Z,100894.55
2022-12-16T17:21:12.240Z,100894.55
2022-12-16T17:23:59.132Z,100917.17
2022-12-16T17:26:46.457Z,100913.59
2022-12-16T17:29:42.458Z,100926.41
2022-12-16T17:32:30.146Z,100909.73
2022-12-16T17:35:17.756Z,100922.52
2022-12-16T17:38:04.513Z,100922.52
2022-12-16T17:40:51.448Z,100898.91
2022-12-16T17:43:38.505Z,100880.19
2022-12-16T17:46:28.024Z,100874.90
2022-12-16T17:49:17.421Z,100862.98
2022-12-16T17:52:04.698Z,100859.95
2022-12-16T17:54:51.617Z,100859.95
2022-12-16T17:57:38.579Z,100828.16
2022-12-16T18:00:28.223Z,100816.77
2022-12-16T18:03:15.572Z,100807.11
2022-12-16T18:06:02.657Z,100804.92
2022-12-16T18:08:51.209Z,100807.63
2022-12-16T18:11:39.002Z,100814.23
2022-12-16T18:14:25.880Z,100792.28
2022-12-16T18:17:12.752Z,100806.28
2022-12-16T18:19:59.401Z,100806.28
2022-12-16T18:22:46.446Z,100777.64
2022-12-16T18:25:33.542Z,100775.72
2022-12-16T18:28:20.592Z,100812.05
2022-12-16T18:31:08.291Z,100811.02
2022-12-16T18:33:55.113Z,100793.53
2022-12-16T18:36:42.159Z,100793.53
2022-12-16T18:39:29.508Z,100828.91
2022-12-16T18:42:16.178Z,100824.49
2022-12-16T18:45:03.195Z,100837.81
2022-12-16T18:47:50.317Z,100848.95
2022-12-16T18:50:38.215Z,100832.92
2022-12-16T18:53:26.084Z,100849.98
2022-12-16T18:56:24.806Z,100839.02
2022-12-16T18:59:12.270Z,100824.26
2022-12-16T19:02:00.222Z,100848.99
2022-12-16T19:04:47.149Z,100853.78
2022-12-16T19:07:34.255Z,100847.43
2022-12-16T19:10:21.515Z,100847.43
2022-12-16T19:13:08.617Z,100858.52
2022-12-16T19:15:55.794Z,100866.09
2022-12-16T19:18:42.868Z,100863.26
2022-12-16T19:21:30.213Z,100869.45
2022-12-16T19:24:17.006Z,100858.11
2022-12-16T19:27:03.919Z,100844.38
2022-12-16T19:29:50.612Z,100821.55
2022-12-16T19:32:38.476Z,100815.28
2022-12-16T19:35:25.002Z,100835.23
2022-12-16T19:38:11.476Z,100836.01
2022-12-16T19:40:58.236Z,100819.77
2022-12-16T19:43:44.731Z,100803.64
2022-12-16T19:46:31.580Z,100803.64
2022-12-16T19:49:18.410Z,100813.17
2022-12-16T19:52:04.849Z,100813.22
2022-12-16T19:54:51.639Z,100789.76
2022-12-16T19:57:38.641Z,100805.87
2022-12-16T20:00:26.305Z,100806.90
2022-12-16T20:03:13.423Z,100806.90
2022-12-16T20:06:00.183Z,100794.16
2022-12-16T20:08:48.288Z,100790.20
2022-12-16T20:11:35.261Z,100764.70
2022-12-16T20:14:22.169Z,100772.19
2022-12-16T20:17:09.294Z,100781.06
2022-12-16T20:19:56.267Z,100770.24
2022-12-16T20:22:43.300Z,100770.58
2022-12-16T20:25:30.501Z,100767.90
2022-12-16T20:28:23.239Z,100767.90
2022-12-16T20:31:05.832Z,100785.98
2022-12-16T20:33:54.393Z,100785.98
2022-12-16T20:36:41.494Z,100795.52
2022-12-16T20:39:29.129Z,100801.85
2022-12-16T20:42:15.663Z,100793.94
2022-12-16T20:45:02.515Z,100776.98
2022-12-16T20:47:49.613Z,100776.98
2022-12-16T20:50:36.308Z,100746.48
2022-12-16T20:53:23.070Z,100743.38
2022-12-16T20:56:10.022Z,100743.38
2022-12-16T20:58:57.017Z,100740.74
2022-12-16T21:01:56.128Z,100728.67
2022-12-16T21:04:32.613Z,100728.67
2022-12-16T21:07:19.472Z,100732.16
2022-12-16T21:10:06.597Z,100738.48
2022-12-16T21:12:53.635Z,100738.16
2022-12-16T21:15:40.381Z,100749.23
2022-12-16T21:18:27.534Z,100757.88
2022-12-16T21:21:14.884Z,100748.96
2022-12-16T21:24:01.782Z,100741.94
2022-12-16T21:26:48.454Z,100725.36
2022-12-16T21:29:36.091Z,100716.97
2022-12-16T21:32:23.525Z,100726.57
2022-12-16T21:35:10.380Z,100724.42
2022-12-16T21:37:57.545Z,100734.03
2022-12-16T21:40:44.686Z,100734.03
2022-12-16T21:43:33.026Z,100738.95
2022-12-16T21:46:19.921Z,100741.79
2022-12-16T21:49:06.895Z,100741.79
2022-12-16T21:51:56.359Z,100726.27
2022-12-16T21:54:43.682Z,100726.27
2022-12-16T21:57:30.736Z,100727.63
2022-12-16T22:00:17.911Z,100712.42
2022-12-16T22:03:04.997Z,100710.63
2022-12-16T22:05:51.960Z,100715.77
2022-12-16T22:08:38.732Z,100718.08
2022-12-16T22:11:33.016Z,100717.45
2022-12-16T22:14:20.349Z,100717.45
2022-12-16T22:17:07.369Z,100716.98
2022-12-16T22:19:56.118Z,100729.69
2022-12-16T22:22:42.945Z,100714.67
2022-12-16T22:25:29.998Z,100714.67
2022-12-16T22:28:17.045Z,100723.80
2022-12-16T22:31:04.175Z,100723.12
2022-12-16T22:33:51.718Z,100730.43
2022-12-16T22:36:38.727Z,100730.58
2022-12-16T22:39:25.370Z,100722.65
2022-12-16T22:42:12.200Z,100722.34
2022-12-16T22:44:59.124Z,100725.82
2022-12-16T22:47:46.229Z,100726.34
2022-12-16T22:50:33.472Z,100736.74
2022-12-16T22:53:20.685Z,100737.07
2022-12-16T22:56:14.701Z,100745.04
2022-12-16T22:59:01.754Z,100724.52
2022-12-16T23:01:48.793Z,100723.38
2022-12-16T23:04:36.049Z,100721.23
2022-12-16T23:07:23.023Z,100713.94
2022-12-16T23:10:10.023Z,100715.09
2022-12-16T23:12:57.113Z,100722.06
2022-12-16T23:15:44.405Z,100725.35
2022-12-16T23:18:31.124Z,100716.91
2022-12-16T23:21:18.254Z,100716.91
2022-12-16T23:26:29.932Z,100692.08
2022-12-16T23:29:16.715Z,100687.41
2022-12-16T23:32:03.701Z,100691.56
2022-12-16T23:34:50.863Z,100691.88
2022-12-16T23:37:37.966Z,100696.48
2022-12-16T23:40:25.561Z,100697.16
2022-12-16T23:43:13.585Z,100688.03
2022-12-16T23:46:02.787Z,100689.19
2022-12-16T23:48:49.767Z,100697.28
2022-12-16T23:51:36.796Z,100689.32
2022-12-16T23:54:23.583Z,100678.54
2022-12-16T23:57:10.813Z,100678.54
2022-12-16T23:59:57.807Z,100684.66
